Time;durP1;ratioP1;P1;durP2;ratioP2;P2;SDS_P1;SDS_P2;PMS_P1;PMS_P2;Temp;Humidity;BMP_temperature;BMP_pressure;BME280_temperature;BME280_humidity;BME280_pressure;Samples;Min_cycle;Max_cycle;Signal;HPM_P1;HPM_P2
2021/11/24 00:00:43;;;;;;;210.00;50.43;;;6.20;99.90;;;;;;6250961;22;20475;-69
2021/11/24 00:03:12;;;;;;;120.53;46.63;;;6.20;99.90;;;;;;6250733;22;20487;-69
2021/11/24 00:05:40;;;;;;;177.27;58.63;;;6.30;99.90;;;;;;6288638;22;20472;-69
2021/11/24 00:08:09;;;;;;;283.23;62.00;;;6.20;99.90;;;;;;6288328;22;20429;-69
2021/11/24 00:10:38;;;;;;;162.77;53.53;;;6.20;99.90;;;;;;6289006;22;20697;-69
2021/11/24 00:13:06;;;;;;;283.60;60.23;;;6.20;99.90;;;;;;6288941;22;20393;-69
2021/11/24 00:15:36;;;;;;;118.17;43.23;;;6.20;99.90;;;;;;6288153;22;20431;-69
2021/11/24 00:18:04;;;;;;;127.47;43.13;;;6.20;99.90;;;;;;6287945;22;20397;-69
2021/11/24 00:20:33;;;;;;;187.63;50.50;;;6.20;99.90;;;;;;6278230;22;20547;-69
2021/11/24 00:23:01;;;;;;;208.27;45.40;;;6.20;99.90;;;;;;6288060;22;20425;-69
2021/11/24 00:25:29;;;;;;;224.37;56.53;;;6.20;99.90;;;;;;6288086;22;20413;-69
2021/11/24 00:27:58;;;;;;;148.23;49.50;;;6.20;99.90;;;;;;6288448;22;20884;-69
2021/11/24 00:30:26;;;;;;;109.90;49.80;;;6.20;99.90;;;;;;6250653;22;20819;-69
2021/11/24 00:32:56;;;;;;;196.77;49.33;;;6.20;99.90;;;;;;6288166;22;20401;-69
2021/11/24 00:35:24;;;;;;;87.33;44.10;;;6.20;99.90;;;;;;6250711;22;20425;-69
2021/11/24 00:37:53;;;;;;;171.40;57.33;;;6.20;99.90;;;;;;6288404;22;20421;-69
2021/11/24 00:40:21;;;;;;;230.57;52.87;;;6.20;99.90;;;;;;6288360;22;20394;-69
2021/11/24 00:42:49;;;;;;;176.13;50.40;;;6.20;99.90;;;;;;6277611;22;21026;-69
2021/11/24 00:45:17;;;;;;;131.43;49.13;;;6.30;99.90;;;;;;6250336;22;20432;-69
2021/11/24 00:47:46;;;;;;;125.07;49.80;;;6.30;99.90;;;;;;6250502;22;20517;-69
2021/11/24 00:50:15;;;;;;;168.70;44.93;;;6.30;99.90;;;;;;6250569;22;20405;-69
2021/11/24 00:52:44;;;;;;;202.63;52.97;;;6.30;99.90;;;;;;6250432;22;20441;-69
2021/11/24 00:55:13;;;;;;;131.47;48.37;;;6.30;99.90;;;;;;6288468;22;20440;-69
2021/11/24 00:57:41;;;;;;;293.40;51.03;;;6.30;99.90;;;;;;6250491;22;20413;-69
2021/11/24 01:00:14;;;;;;;153.03;48.93;;;6.30;99.90;;;;;;6288451;22;20428;-69
2021/11/24 01:02:43;;;;;;;203.87;58.00;;;6.30;99.90;;;;;;6288387;22;20435;-69
2021/11/24 01:05:12;;;;;;;117.00;46.50;;;6.20;99.90;;;;;;6287995;22;20507;-69
2021/11/24 01:07:41;;;;;;;140.07;45.70;;;6.30;99.90;;;;;;6287731;22;20404;-69
2021/11/24 01:10:10;;;;;;;272.77;63.17;;;6.30;99.90;;;;;;6250313;22;20408;-69
2021/11/24 01:12:40;;;;;;;158.70;46.90;;;6.30;99.90;;;;;;6288025;22;20393;-69
2021/11/24 01:15:10;;;;;;;83.00;40.27;;;6.30;99.90;;;;;;6279534;22;20445;-69
2021/11/24 01:17:38;;;;;;;110.60;46.23;;;6.30;99.90;;;;;;6299936;22;20453;-69
2021/11/24 01:20:07;;;;;;;148.87;45.63;;;6.30;99.90;;;;;;6262786;22;20405;-69
2021/11/24 01:22:36;;;;;;;156.80;53.73;;;6.30;99.90;;;;;;6300856;22;20448;-69
2021/11/24 01:25:06;;;;;;;101.67;43.30;;;6.30;99.90;;;;;;6301746;22;20474;-69
2021/11/24 01:27:34;;;;;;;58.17;40.03;;;6.30;99.90;;;;;;6303691;22;20405;-69
2021/11/24 01:30:03;;;;;;;233.57;53.73;;;6.30;99.90;;;;;;6302643;22;20403;-69
2021/11/24 01:32:31;;;;;;;191.23;47.43;;;6.40;99.90;;;;;;6290656;22;20385;-69
2021/11/24 01:34:59;;;;;;;110.17;47.53;;;6.40;99.90;;;;;;6302474;22;20729;-69
2021/11/24 01:37:27;;;;;;;252.43;56.40;;;6.40;99.90;;;;;;6302549;22;20432;-69
2021/11/24 01:39:55;;;;;;;218.07;51.47;;;6.40;99.90;;;;;;6301149;22;20468;-69
2021/11/24 01:42:25;;;;;;;283.63;51.83;;;6.40;99.90;;;;;;6250171;22;20970;-69
2021/11/24 01:44:53;;;;;;;119.53;46.20;;;6.40;99.90;;;;;;6250026;22;20429;-69
2021/11/24 01:47:21;;;;;;;106.37;44.60;;;6.40;99.90;;;;;;6287501;22;20424;-69
2021/11/24 01:49:49;;;;;;;211.67;51.13;;;6.40;99.90;;;;;;6277478;22;20718;-69
2021/11/24 01:52:18;;;;;;;164.10;46.87;;;6.40;99.90;;;;;;6287313;22;20419;-69
2021/11/24 01:54:47;;;;;;;209.57;54.67;;;6.40;99.90;;;;;;6290748;22;20757;-70
2021/11/24 01:57:17;;;;;;;130.53;48.70;;;6.40;99.90;;;;;;6252071;22;20417;-70
2021/11/24 01:59:48;;;;;;;165.07;52.07;;;6.40;99.90;;;;;;6288827;22;20443;-69
2021/11/24 02:02:18;;;;;;;156.80;52.67;;;6.40;99.90;;;;;;6287171;22;20896;-69
2021/11/24 02:04:46;;;;;;;189.47;56.37;;;6.40;99.90;;;;;;6249805;22;20432;-69
2021/11/24 02:07:14;;;;;;;165.83;48.03;;;6.50;99.90;;;;;;6287220;22;20405;-69
2021/11/24 02:09:43;;;;;;;268.20;59.07;;;6.50;99.90;;;;;;6277129;22;20488;-69
2021/11/24 02:12:12;;;;;;;150.07;44.03;;;6.50;99.90;;;;;;6277247;22;20401;-69
2021/11/24 02:14:40;;;;;;;222.47;49.53;;;6.50;99.90;;;;;;6287054;22;20413;-69
2021/11/24 02:17:11;;;;;;;169.87;49.80;;;6.50;99.90;;;;;;6287069;22;20404;-69
2021/11/24 02:19:39;;;;;;;195.37;53.77;;;6.50;99.90;;;;;;6287869;22;20420;-70
2021/11/24 02:22:08;;;;;;;231.13;55.83;;;6.50;99.90;;;;;;6287534;22;20445;-70
2021/11/24 02:24:38;;;;;;;190.47;51.33;;;6.50;99.90;;;;;;6287714;22;20801;-69
2021/11/24 02:27:09;;;;;;;110.10;44.20;;;6.50;99.90;;;;;;6287192;22;20425;-70
2021/11/24 02:29:40;;;;;;;254.40;51.57;;;6.50;99.90;;;;;;6287785;22;20439;-69
2021/11/24 02:32:09;;;;;;;213.30;47.63;;;6.50;99.90;;;;;;6287849;22;20882;-70
2021/11/24 02:34:38;;;;;;;154.20;45.67;;;6.50;99.90;;;;;;6287054;22;20409;-70
2021/11/24 02:37:07;;;;;;;168.10;44.13;;;6.50;99.90;;;;;;6286979;22;20439;-70
2021/11/24 02:39:35;;;;;;;126.37;48.83;;;6.50;99.90;;;;;;6287157;22;20427;-70
2021/11/24 02:42:04;;;;;;;151.77;46.13;;;6.50;99.90;;;;;;6249519;22;20500;-69
2021/11/24 02:44:37;;;;;;;239.70;53.03;;;6.50;99.90;;;;;;6284579;22;20437;-70
2021/11/24 02:47:09;;;;;;;182.17;53.80;;;6.50;99.90;;;;;;6276704;22;20385;-69
2021/11/24 02:49:40;;;;;;;203.77;55.83;;;6.50;99.90;;;;;;6287241;22;20385;-70
2021/11/24 02:52:10;;;;;;;140.23;47.03;;;6.50;99.90;;;;;;6286934;22;20464;-70
2021/11/24 02:54:40;;;;;;;181.33;44.73;;;6.60;99.90;;;;;;6286925;22;20478;-69
2021/11/24 02:57:09;;;;;;;182.63;52.13;;;6.60;99.90;;;;;;6276891;22;20409;-70
2021/11/24 02:59:38;;;;;;;69.90;48.40;;;6.60;99.90;;;;;;6249451;22;20504;-70
2021/11/24 03:02:07;;;;;;;160.70;48.60;;;6.60;99.90;;;;;;6287427;22;20405;-70
2021/11/24 03:04:37;;;;;;;43.80;39.50;;;6.60;99.90;;;;;;6287307;22;20432;-70
2021/11/24 03:07:05;;;;;;;124.07;43.73;;;6.60;99.90;;;;;;6287850;22;20393;-69
2021/11/24 03:09:35;;;;;;;176.13;49.13;;;6.60;99.90;;;;;;6287504;22;20401;-70
2021/11/24 03:12:04;;;;;;;164.90;50.73;;;6.60;99.90;;;;;;6286803;22;20476;-69
2021/11/24 03:14:33;;;;;;;152.37;46.20;;;6.70;99.90;;;;;;6286677;22;20409;-69
2021/11/24 03:17:01;;;;;;;161.57;48.00;;;6.70;99.90;;;;;;6249369;22;20491;-69
2021/11/24 03:19:29;;;;;;;218.40;54.07;;;6.70;99.90;;;;;;6249430;22;20455;-70
2021/11/24 03:21:57;;;;;;;215.83;52.23;;;6.70;99.90;;;;;;6286791;22;20507;-69
2021/11/24 03:24:26;;;;;;;128.00;47.30;;;6.70;99.90;;;;;;6286768;22;20519;-70
2021/11/24 03:26:55;;;;;;;291.10;54.93;;;6.70;99.90;;;;;;6249496;22;20477;-69
2021/11/24 03:29:23;;;;;;;284.40;57.07;;;6.70;99.90;;;;;;6286772;22;20729;-69
2021/11/24 03:31:51;;;;;;;160.33;48.20;;;6.70;99.90;;;;;;6250736;22;20419;-69
2021/11/24 03:34:20;;;;;;;228.87;51.83;;;6.70;99.90;;;;;;6276640;22;20421;-69
2021/11/24 03:36:48;;;;;;;107.60;43.03;;;6.70;99.90;;;;;;6249356;22;20431;-69
2021/11/24 03:39:16;;;;;;;121.53;46.97;;;6.70;99.90;;;;;;6286673;22;20397;-69
2021/11/24 03:41:44;;;;;;;195.27;45.53;;;6.80;99.90;;;;;;6286714;22;20818;-69
2021/11/24 03:44:15;;;;;;;70.70;37.20;;;6.80;99.90;;;;;;6276413;22;20437;-69
2021/11/24 03:46:43;;;;;;;266.73;47.33;;;6.80;99.90;;;;;;6276569;22;20739;-69
2021/11/24 03:49:11;;;;;;;153.10;44.53;;;6.80;99.90;;;;;;6286956;22;20769;-69
2021/11/24 03:51:39;;;;;;;181.67;50.37;;;6.80;99.90;;;;;;6287084;22;20709;-69
2021/11/24 03:54:07;;;;;;;194.97;48.57;;;6.80;99.90;;;;;;6288332;22;20754;-69
2021/11/24 03:56:36;;;;;;;240.00;62.53;;;6.80;99.90;;;;;;6251075;22;20444;-69
2021/11/24 03:59:04;;;;;;;148.93;44.03;;;6.80;99.90;;;;;;6288484;22;20403;-69
2021/11/24 04:01:33;;;;;;;191.97;43.73;;;6.80;99.90;;;;;;6289058;22;20432;-69
2021/11/24 04:04:01;;;;;;;167.93;44.83;;;6.90;99.90;;;;;;6288461;22;20532;-69
2021/11/24 04:06:34;;;;;;;113.90;41.97;;;6.80;99.90;;;;;;6288338;22;20379;-69
2021/11/24 04:09:03;;;;;;;232.20;45.20;;;6.90;99.90;;;;;;6289002;22;20401;-69
2021/11/24 04:11:31;;;;;;;148.53;42.93;;;6.90;99.90;;;;;;6250900;22;20413;-69
2021/11/24 04:13:59;;;;;;;225.13;45.23;;;6.90;99.90;;;;;;6250837;22;20417;-69
2021/11/24 04:16:28;;;;;;;220.80;48.07;;;6.90;99.90;;;;;;6288274;22;20732;-69
2021/11/24 04:18:59;;;;;;;225.93;49.43;;;6.90;99.90;;;;;;6288505;22;20397;-69
2021/11/24 04:21:29;;;;;;;112.30;39.50;;;6.90;99.90;;;;;;6288250;22;20460;-69
2021/11/24 04:23:58;;;;;;;206.30;45.77;;;7.00;99.90;;;;;;6288670;22;20527;-69
2021/11/24 04:26:27;;;;;;;229.27;46.13;;;7.00;99.90;;;;;;6288180;22;20894;-69
2021/11/24 04:28:55;;;;;;;127.83;38.30;;;7.00;99.90;;;;;;6288120;22;20429;-69
2021/11/24 04:31:23;;;;;;;115.60;40.33;;;7.00;99.90;;;;;;6288484;22;20405;-69
2021/11/24 04:33:51;;;;;;;215.97;46.93;;;7.00;99.90;;;;;;6287994;22;20508;-69
2021/11/24 04:36:21;;;;;;;161.10;38.43;;;7.00;99.90;;;;;;6250691;22;20420;-69
2021/11/24 04:38:49;;;;;;;265.73;43.80;;;7.10;99.90;;;;;;6287970;22;20898;-69
2021/11/24 04:41:17;;;;;;;188.53;41.97;;;7.10;99.90;;;;;;6250596;22;20572;-69
2021/11/24 04:43:47;;;;;;;234.77;41.00;;;7.10;99.90;;;;;;6250499;22;20440;-69
2021/11/24 04:46:17;;;;;;;140.37;40.73;;;7.10;99.90;;;;;;6250358;22;20821;-69
2021/11/24 04:48:45;;;;;;;234.90;43.20;;;7.10;99.90;;;;;;6288257;22;20397;-69
2021/11/24 04:51:13;;;;;;;185.47;53.43;;;7.10;99.90;;;;;;6287995;22;20429;-69
2021/11/24 04:53:43;;;;;;;238.50;44.70;;;7.10;99.90;;;;;;6277486;22;20957;-69
2021/11/24 04:56:11;;;;;;;208.07;50.47;;;7.10;99.90;;;;;;6288217;22;20484;-69
2021/11/24 04:58:46;;;;;;;138.83;37.90;;;7.20;99.90;;;;;;6287865;22;20405;-69
2021/11/24 05:01:15;;;;;;;195.27;41.67;;;7.20;99.90;;;;;;6287859;22;20373;-69
2021/11/24 05:03:44;;;;;;;243.70;44.10;;;7.20;99.90;;;;;;6289074;22;20763;-69
2021/11/24 05:06:12;;;;;;;208.30;37.63;;;7.20;99.90;;;;;;6252490;22;20419;-69
2021/11/24 05:08:42;;;;;;;121.77;38.83;;;7.20;99.90;;;;;;6288153;22;20400;-69
2021/11/24 05:11:11;;;;;;;229.33;48.30;;;7.20;99.90;;;;;;6287701;22;20393;-69
2021/11/24 05:13:47;;;;;;;147.63;42.40;;;7.20;99.90;;;;;;6250114;22;20517;-69
2021/11/24 05:16:15;;;;;;;221.97;44.80;;;7.20;99.90;;;;;;6287641;22;20428;-69
2021/11/24 05:18:47;;;;;;;135.90;31.70;;;7.30;99.90;;;;;;6287611;22;20401;-69
2021/11/24 05:21:20;;;;;;;254.43;51.03;;;7.30;99.90;;;;;;6250535;22;20880;-69
2021/11/24 05:23:51;;;;;;;159.07;36.30;;;7.30;99.90;;;;;;6277510;22;20789;-70
2021/11/24 05:26:19;;;;;;;316.13;49.40;;;7.30;99.90;;;;;;6277111;22;20885;-70
2021/11/24 05:28:47;;;;;;;186.67;41.07;;;7.30;99.90;;;;;;6287904;22;20397;-70
2021/11/24 05:31:15;;;;;;;163.23;43.40;;;7.30;99.90;;;;;;6287500;22;20834;-69
2021/11/24 05:33:44;;;;;;;165.60;36.13;;;7.30;99.90;;;;;;6288094;22;20418;-69
2021/11/24 05:36:12;;;;;;;77.20;29.83;;;7.30;99.90;;;;;;6287443;22;20443;-69
2021/11/24 05:38:40;;;;;;;208.63;40.70;;;7.30;99.90;;;;;;6287761;22;20396;-70
2021/11/24 05:41:10;;;;;;;144.97;35.50;;;7.30;99.90;;;;;;6249970;22;20456;-70
2021/11/24 05:43:38;;;;;;;229.07;39.93;;;7.40;99.90;;;;;;6287347;22;20422;-69
2021/11/24 05:46:16;;;;;;;183.87;35.77;;;7.40;99.90;;;;;;6249746;22;20444;-70
2021/11/24 05:48:45;;;;;;;119.90;38.23;;;7.30;99.90;;;;;;6287439;22;20425;-70
2021/11/24 05:51:14;;;;;;;112.20;38.83;;;7.40;99.90;;;;;;6287332;22;20425;-70
2021/11/24 05:53:42;;;;;;;96.97;28.13;;;7.40;99.90;;;;;;6287621;22;20421;-70
2021/11/24 05:56:12;;;;;;;162.20;36.93;;;7.40;99.90;;;;;;6287224;22;20487;-70
2021/11/24 05:58:40;;;;;;;259.73;40.40;;;7.40;99.90;;;;;;6287584;22;20400;-70
2021/11/24 06:01:08;;;;;;;201.37;41.43;;;7.40;99.90;;;;;;6287286;22;20964;-70
2021/11/24 06:03:36;;;;;;;168.37;40.93;;;7.40;99.90;;;;;;6287190;22;20413;-69
2021/11/24 06:06:04;;;;;;;197.93;36.87;;;7.40;99.90;;;;;;6287262;22;20759;-69
2021/11/24 06:08:33;;;;;;;222.27;35.17;;;7.40;99.90;;;;;;6287178;22;20475;-69
2021/11/24 06:11:01;;;;;;;213.83;36.83;;;7.40;99.90;;;;;;6287216;22;20393;-70
2021/11/24 06:13:35;;;;;;;139.37;34.50;;;7.40;99.90;;;;;;6287488;22;20816;-69
2021/11/24 06:16:04;;;;;;;198.20;35.43;;;7.40;99.90;;;;;;6252834;22;20412;-70
2021/11/24 06:18:32;;;;;;;184.27;42.30;;;7.40;99.90;;;;;;6291446;22;20392;-70
2021/11/24 06:21:00;;;;;;;190.03;41.57;;;7.40;99.90;;;;;;6292158;22;20404;-70
2021/11/24 06:23:28;;;;;;;131.80;33.30;;;7.40;99.90;;;;;;6255902;22;20435;-70
2021/11/24 06:25:56;;;;;;;172.77;40.50;;;7.40;99.90;;;;;;6285088;22;20500;-69
2021/11/24 06:28:25;;;;;;;219.23;44.87;;;7.40;99.90;;;;;;6292612;22;20407;-69
2021/11/24 06:30:54;;;;;;;242.43;40.80;;;7.50;99.90;;;;;;6289674;22;20432;-70
2021/11/24 06:33:22;;;;;;;163.10;31.50;;;7.50;99.90;;;;;;6286967;22;20395;-70
2021/11/24 06:35:50;;;;;;;125.13;38.07;;;7.40;99.90;;;;;;6287055;22;20437;-70
2021/11/24 06:38:18;;;;;;;265.97;47.60;;;7.40;99.90;;;;;;6287377;22;20749;-70
2021/11/24 06:40:47;;;;;;;169.27;33.97;;;7.40;99.90;;;;;;6277162;22;20499;-70
2021/11/24 06:43:15;;;;;;;169.77;36.67;;;7.50;99.90;;;;;;6249590;22;20405;-70
2021/11/24 06:45:44;;;;;;;212.30;39.53;;;7.50;99.90;;;;;;6249374;22;20849;-70
2021/11/24 06:48:14;;;;;;;278.23;34.37;;;7.50;99.90;;;;;;6287276;22;20401;-69
2021/11/24 06:50:42;;;;;;;202.97;37.60;;;7.50;99.90;;;;;;6287740;22;20397;-69
2021/11/24 06:53:12;;;;;;;247.53;33.70;;;7.50;99.90;;;;;;6287019;22;20764;-69
2021/11/24 06:55:40;;;;;;;209.73;37.07;;;7.50;99.90;;;;;;6286835;22;20423;-69
2021/11/24 06:58:08;;;;;;;153.07;35.90;;;7.50;99.90;;;;;;6249899;22;20783;-70
2021/11/24 07:00:37;;;;;;;126.77;33.90;;;7.50;99.90;;;;;;6287104;22;20421;-69
2021/11/24 07:03:07;;;;;;;163.10;29.70;;;7.50;99.90;;;;;;6286963;22;20472;-69
2021/11/24 07:05:37;;;;;;;190.73;37.77;;;7.50;99.90;;;;;;6287114;22;20498;-69
2021/11/24 07:08:06;;;;;;;183.20;31.30;;;7.50;99.90;;;;;;6287290;22;20910;-70
2021/11/24 07:10:34;;;;;;;198.23;24.93;;;7.50;99.90;;;;;;6287093;22;20426;-70
2021/11/24 07:13:03;;;;;;;173.27;30.13;;;7.50;99.90;;;;;;6249822;22;21002;-70
2021/11/24 07:15:32;;;;;;;182.67;45.50;;;7.50;99.90;;;;;;6287207;22;20421;-69
2021/11/24 07:18:01;;;;;;;217.87;39.53;;;7.50;99.90;;;;;;6287341;22;20478;-69
2021/11/24 07:20:30;;;;;;;149.83;27.43;;;7.50;99.90;;;;;;6259851;22;20476;-70
2021/11/24 07:23:00;;;;;;;89.87;24.13;;;7.40;99.90;;;;;;6249354;22;20444;-70
2021/11/24 07:25:29;;;;;;;135.07;25.43;;;7.40;99.90;;;;;;6249366;22;20752;-70
2021/11/24 07:27:57;;;;;;;156.90;31.83;;;7.40;99.90;;;;;;6251026;22;20460;-70
2021/11/24 07:30:25;;;;;;;147.90;31.50;;;7.40;99.90;;;;;;6289057;22;20422;-70
2021/11/24 07:32:54;;;;;;;105.00;28.97;;;7.50;99.90;;;;;;6288420;22;20389;-70
2021/11/24 07:35:22;;;;;;;185.47;25.53;;;7.50;99.90;;;;;;6288410;22;20416;-70
2021/11/24 07:37:50;;;;;;;189.40;33.17;;;7.50;99.90;;;;;;6288533;22;20402;-70
2021/11/24 07:40:21;;;;;;;187.50;30.63;;;7.40;99.90;;;;;;6251248;22;20797;-70
2021/11/24 07:42:50;;;;;;;188.53;33.63;;;7.50;99.90;;;;;;6251268;22;20403;-69
2021/11/24 07:45:19;;;;;;;236.93;40.43;;;7.50;99.90;;;;;;6251086;22;20444;-70
2021/11/24 07:47:48;;;;;;;240.60;31.13;;;7.50;99.90;;;;;;6251167;22;20500;-69
2021/11/24 07:50:16;;;;;;;237.57;38.63;;;7.50;99.90;;;;;;6289245;22;20404;-70
2021/11/24 07:52:44;;;;;;;146.10;32.60;;;7.50;99.90;;;;;;6288631;22;20401;-70
2021/11/24 07:55:13;;;;;;;173.17;27.77;;;7.50;99.90;;;;;;6251027;22;20772;-70
2021/11/24 07:57:42;;;;;;;266.50;33.77;;;7.50;99.90;;;;;;6278555;22;20409;-70
2021/11/24 08:00:12;;;;;;;136.03;35.03;;;7.50;99.90;;;;;;6288487;22;20393;-70
2021/11/24 08:02:41;;;;;;;142.63;30.03;;;7.50;99.90;;;;;;6250836;22;20533;-70
2021/11/24 08:05:10;;;;;;;190.73;34.33;;;7.50;99.90;;;;;;6250918;22;20474;-70
2021/11/24 08:07:53;;;;;;;176.40;32.50;;;7.50;99.90;;;;;;6251078;22;20412;-70
2021/11/24 08:10:21;;;;;;;200.90;39.63;;;7.50;99.90;;;;;;6288283;22;20424;-70
2021/11/24 08:12:51;;;;;;;196.83;32.83;;;7.50;99.90;;;;;;6250793;22;20492;-69
2021/11/24 08:15:19;;;;;;;147.70;30.13;;;7.50;99.90;;;;;;6278251;22;20449;-70
2021/11/24 08:17:48;;;;;;;237.37;38.50;;;7.50;99.90;;;;;;6288592;22;20405;-70
2021/11/24 08:20:18;;;;;;;214.73;30.57;;;7.50;99.90;;;;;;6250744;22;20430;-70
2021/11/24 08:22:46;;;;;;;270.73;42.87;;;7.60;99.90;;;;;;6277977;22;20404;-70
2021/11/24 08:25:15;;;;;;;192.73;33.07;;;7.60;99.90;;;;;;6288385;22;20440;-70
2021/11/24 08:27:43;;;;;;;209.50;37.50;;;7.60;99.90;;;;;;6288359;22;20399;-70
2021/11/24 08:30:13;;;;;;;217.17;37.83;;;7.60;99.90;;;;;;6288937;22;20484;-69
2021/11/24 08:32:42;;;;;;;213.27;40.50;;;7.60;99.90;;;;;;6278322;22;20401;-70
2021/11/24 08:35:11;;;;;;;219.77;40.80;;;7.60;99.90;;;;;;6250957;22;20487;-70
2021/11/24 08:37:39;;;;;;;162.70;33.00;;;7.60;99.90;;;;;;6278028;22;20473;-70
2021/11/24 08:40:09;;;;;;;211.23;40.43;;;7.60;99.90;;;;;;6250668;22;20499;-69
2021/11/24 08:42:37;;;;;;;241.30;40.77;;;7.70;99.90;;;;;;6287957;22;20420;-69
2021/11/24 08:45:07;;;;;;;254.40;41.27;;;7.70;99.90;;;;;;6277689;22;20455;-70
2021/11/24 08:47:38;;;;;;;133.10;31.23;;;7.70;99.90;;;;;;6287876;22;20421;-70
2021/11/24 08:50:09;;;;;;;280.93;51.97;;;7.70;99.90;;;;;;6250737;22;20946;-69
2021/11/24 08:52:37;;;;;;;270.10;47.43;;;7.70;99.90;;;;;;6287901;22;20382;-69
2021/11/24 08:55:07;;;;;;;233.57;40.47;;;7.80;99.90;;;;;;6287872;22;20413;-69
2021/11/24 08:57:37;;;;;;;193.47;37.10;;;7.80;99.90;;;;;;6287817;22;20401;-69
2021/11/24 09:00:08;;;;;;;224.80;33.77;;;7.80;99.90;;;;;;6288210;22;20495;-69
2021/11/24 09:02:37;;;;;;;141.43;38.13;;;7.80;99.90;;;;;;6287945;22;20387;-69
2021/11/24 09:05:07;;;;;;;157.53;31.27;;;7.80;99.90;;;;;;6277770;22;20483;-69
2021/11/24 09:07:35;;;;;;;288.63;43.80;;;7.90;99.90;;;;;;6287654;22;20425;-69
2021/11/24 09:10:05;;;;;;;285.27;37.53;;;7.90;99.90;;;;;;6288145;22;20476;-70
2021/11/24 09:12:34;;;;;;;290.07;49.53;;;7.90;99.90;;;;;;6288608;22;20413;-70
2021/11/24 09:15:03;;;;;;;249.60;44.17;;;7.90;99.90;;;;;;6287746;22;20977;-70
2021/11/24 09:17:31;;;;;;;298.33;50.80;;;7.90;99.90;;;;;;6287809;22;20401;-70
2021/11/24 09:20:01;;;;;;;264.53;37.27;;;8.00;99.90;;;;;;6288011;22;20393;-70
2021/11/24 09:22:36;;;;;;;241.27;36.10;;;8.00;99.90;;;;;;6250429;22;20484;-70
2021/11/24 09:25:05;;;;;;;126.67;26.57;;;8.00;99.90;;;;;;6287567;22;20422;-69
2021/11/24 09:27:35;;;;;;;242.33;36.07;;;8.00;99.90;;;;;;6277209;22;20982;-69
2021/11/24 09:30:05;;;;;;;229.63;33.90;;;8.00;99.90;;;;;;6288342;22;20404;-69
2021/11/24 09:32:33;;;;;;;286.43;37.93;;;8.00;99.90;;;;;;6250355;22;20749;-69
2021/11/24 09:35:03;;;;;;;236.30;43.43;;;8.00;99.90;;;;;;6277666;22;20513;-69
2021/11/24 09:37:32;;;;;;;108.10;23.70;;;8.10;99.90;;;;;;6288489;22;20412;-69
2021/11/24 09:40:00;;;;;;;143.30;29.27;;;8.10;99.90;;;;;;6287810;22;20398;-69
2021/11/24 09:42:30;;;;;;;257.57;47.73;;;8.10;99.90;;;;;;6250185;22;20448;-69
2021/11/24 09:45:02;;;;;;;230.50;38.67;;;8.10;99.90;;;;;;6287386;22;20436;-69
2021/11/24 09:47:37;;;;;;;252.93;41.33;;;8.20;99.90;;;;;;6287939;22;20429;-69
2021/11/24 09:50:09;;;;;;;261.20;46.97;;;8.20;99.90;;;;;;6249979;22;20526;-69
2021/11/24 09:52:38;;;;;;;176.37;34.23;;;8.20;99.90;;;;;;6287663;22;20392;-69
2021/11/24 09:55:07;;;;;;;133.07;21.60;;;8.20;99.90;;;;;;6287631;22;20414;-69
2021/11/24 09:57:36;;;;;;;207.47;37.47;;;8.30;99.90;;;;;;6287970;22;20770;-69
2021/11/24 10:00:06;;;;;;;316.73;41.80;;;8.30;99.90;;;;;;6277821;22;20402;-69
2021/11/24 10:02:39;;;;;;;250.30;40.13;;;8.30;99.90;;;;;;6277913;22;20890;-69
2021/11/24 10:05:10;;;;;;;316.67;32.93;;;8.30;99.90;;;;;;6287823;22;20413;-69
2021/11/24 10:07:39;;;;;;;198.80;25.17;;;8.30;99.90;;;;;;6250029;22;20431;-69
2021/11/24 10:10:08;;;;;;;125.60;28.13;;;8.40;99.90;;;;;;6250084;22;20419;-69
2021/11/24 10:12:36;;;;;;;178.00;31.77;;;8.40;99.90;;;;;;6249884;22;20500;-69
2021/11/24 10:15:05;;;;;;;139.83;30.13;;;8.50;99.90;;;;;;6249681;22;20433;-69
2021/11/24 10:17:33;;;;;;;245.43;39.93;;;8.50;99.90;;;;;;6287246;22;20429;-70
2021/11/24 10:20:05;;;;;;;212.73;38.37;;;8.50;99.90;;;;;;6249786;22;20462;-69
2021/11/24 10:22:37;;;;;;;265.03;35.67;;;8.50;99.90;;;;;;6287495;22;20471;-69
2021/11/24 10:25:08;;;;;;;275.27;36.67;;;8.60;99.90;;;;;;6287449;22;20499;-69
2021/11/24 10:27:40;;;;;;;340.50;35.03;;;8.60;99.90;;;;;;6277051;22;20513;-69
2021/11/24 10:30:25;;;;;;;252.50;56.27;;;8.60;99.90;;;;;;6287103;22;20379;-69
2021/11/24 10:32:53;;;;;;;204.50;34.30;;;8.60;99.90;;;;;;6287495;22;20463;-69
2021/11/24 10:35:26;;;;;;;254.40;36.93;;;8.60;99.90;;;;;;6277184;22;20452;-69
2021/11/24 10:38:14;;;;;;;288.83;40.80;;;8.60;99.90;;;;;;6277280;22;20388;-69
2021/11/24 10:40:43;;;;;;;307.03;46.87;;;8.70;99.90;;;;;;6287559;22;20434;-69
2021/11/24 10:43:13;;;;;;;294.20;44.30;;;8.70;99.90;;;;;;6276720;22;20432;-70
2021/11/24 10:45:53;;;;;;;390.67;46.70;;;8.70;99.90;;;;;;6287127;22;20435;-69
2021/11/24 10:48:28;;;;;;;317.90;42.43;;;8.70;99.90;;;;;;6277139;22;20519;-69
2021/11/24 10:50:59;;;;;;;230.40;35.60;;;8.70;99.90;;;;;;6287505;22;20391;-69
2021/11/24 10:53:29;;;;;;;326.63;45.23;;;8.70;99.90;;;;;;6249819;22;20453;-69
2021/11/24 10:56:06;;;;;;;225.80;48.20;;;8.70;99.90;;;;;;6288208;22;20422;-70
2021/11/24 10:58:38;;;;;;;240.50;46.50;;;8.70;99.90;;;;;;6278380;22;20398;-69
2021/11/24 11:01:07;;;;;;;378.33;60.83;;;8.80;99.90;;;;;;6289626;22;20454;-69
2021/11/24 11:03:40;;;;;;;261.30;43.30;;;8.80;99.90;;;;;;6289805;22;20384;-69
2021/11/24 11:06:08;;;;;;;328.60;48.13;;;8.80;99.90;;;;;;6279303;22;20440;-69
2021/11/24 11:08:38;;;;;;;327.73;49.77;;;8.80;99.90;;;;;;6289678;22;20548;-69
2021/11/24 11:11:27;;;;;;;442.47;62.87;;;8.80;99.90;;;;;;6290045;22;20375;-69
2021/11/24 11:14:13;;;;;;;411.57;53.13;;;8.80;99.90;;;;;;6289716;22;20452;-69
2021/11/24 11:16:46;;;;;;;454.67;58.33;;;8.80;99.90;;;;;;6279316;22;20470;-69
2021/11/24 11:19:40;;;;;;;324.17;46.20;;;8.80;99.90;;;;;;6289746;22;20898;-69
2021/11/24 11:22:09;;;;;;;324.53;53.60;;;8.90;99.90;;;;;;6254294;22;20404;-69
2021/11/24 11:24:40;;;;;;;448.13;64.50;;;8.90;99.90;;;;;;6290341;22;20412;-70
2021/11/24 11:27:08;;;;;;;247.10;52.70;;;8.90;99.90;;;;;;6290010;22;20997;-70
2021/11/24 11:29:40;;;;;;;309.17;47.87;;;8.90;99.90;;;;;;6290145;22;20399;-70
2021/11/24 11:32:08;;;;;;;250.53;39.10;;;8.90;99.90;;;;;;6289344;22;20379;-69
2021/11/24 11:34:38;;;;;;;437.90;52.10;;;9.00;99.90;;;;;;6288641;22;20484;-69
2021/11/24 11:37:07;;;;;;;374.53;55.87;;;9.00;99.90;;;;;;6289235;22;20809;-69
2021/11/24 11:39:37;;;;;;;414.17;56.20;;;9.00;99.90;;;;;;6289435;22;20378;-69
2021/11/24 11:42:11;;;;;;;475.03;62.60;;;9.00;99.90;;;;;;6278742;22;20392;-69
2021/11/24 11:45:06;;;;;;;191.13;30.73;;;9.10;99.90;;;;;;6250984;22;20440;-69
2021/11/24 11:47:52;;;;;;;294.37;50.73;;;9.10;99.90;;;;;;6289163;22;20465;-69
2021/11/24 11:51:00;;;;;;;361.67;63.67;;;9.10;99.90;;;;;;6288558;22;20755;-69
2021/11/24 11:53:32;;;;;;;367.47;53.10;;;9.10;99.90;;;;;;6288340;22;20427;-69
2021/11/24 11:56:20;;;;;;;339.50;44.20;;;9.10;99.90;;;;;;6288862;22;20405;-69
2021/11/24 11:58:58;;;;;;;488.30;57.60;;;9.10;99.90;;;;;;6251158;22;20405;-69
2021/11/24 12:01:29;;;;;;;288.97;28.97;;;9.10;99.90;;;;;;6278285;22;20377;-69
2021/11/24 12:04:09;;;;;;;167.87;34.43;;;9.10;99.90;;;;;;6288643;22;20424;-69
2021/11/24 12:06:42;;;;;;;210.67;33.20;;;9.10;99.90;;;;;;6289281;22;20835;-69
2021/11/24 12:09:22;;;;;;;257.57;41.20;;;9.10;99.90;;;;;;6288954;22;20504;-69
2021/11/24 12:12:12;;;;;;;270.43;46.50;;;9.10;99.90;;;;;;6289096;22;20375;-69
2021/11/24 12:14:57;;;;;;;170.87;27.97;;;9.10;99.90;;;;;;6251460;22;20433;-69
2021/11/24 12:17:53;;;;;;;334.90;39.47;;;9.10;99.90;;;;;;6278453;22;20894;-69
2021/11/24 12:20:43;;;;;;;276.33;55.10;;;9.10;99.90;;;;;;6278941;22;20447;-68
2021/11/24 12:23:30;;;;;;;385.47;53.60;;;9.10;99.90;;;;;;6288825;22;20463;-69
2021/11/24 12:26:01;;;;;;;391.63;56.93;;;9.10;99.90;;;;;;6251001;22;20798;-69
2021/11/24 12:28:40;;;;;;;206.73;35.03;;;9.10;99.90;;;;;;6251077;22;20497;-69
2021/11/24 12:31:16;;;;;;;465.60;65.07;;;9.20;99.90;;;;;;6289139;22;20444;-69
2021/11/24 12:33:53;;;;;;;142.30;45.30;;;9.20;99.90;;;;;;6250922;22;20486;-69
2021/11/24 12:36:24;;;;;;;347.57;44.00;;;9.10;99.90;;;;;;6278173;22;20389;-68
2021/11/24 12:38:55;;;;;;;475.47;72.90;;;9.10;99.90;;;;;;6289105;22;20386;-69
2021/11/24 12:41:28;;;;;;;434.33;97.87;;;9.10;99.90;;;;;;6288799;22;20771;-69
2021/11/24 12:43:59;;;;;;;138.67;35.43;;;9.10;99.90;;;;;;6288896;22;20444;-70